createdAt,value
2022-08-04T00:00:06.567Z,100499.00
2022-08-04T00:02:58.445Z,100494.00
2022-08-04T00:05:30.258Z,100498.00
2022-08-04T00:08:06.061Z,100503.00
2022-08-04T00:10:34.945Z,100493.00
2022-08-04T00:13:04.448Z,100492.00
2022-08-04T00:15:32.768Z,100495.00
2022-08-04T00:18:08.429Z,100485.00
2022-08-04T00:20:39.022Z,100485.00
2022-08-04T00:23:06.145Z,100494.00
2022-08-04T00:25:32.936Z,100485.00
2022-08-04T00:28:01.085Z,100487.00
2022-08-04T00:30:27.975Z,100487.00
2022-08-04T00:32:57.879Z,100486.00
2022-08-04T00:35:24.844Z,100488.00
2022-08-04T00:37:52.148Z,100491.00
2022-08-04T00:40:56.193Z,100482.00
2022-08-04T00:43:43.794Z,100485.00
2022-08-04T00:46:34.475Z,100491.00
2022-08-04T00:49:19.174Z,100485.00
2022-08-04T00:52:31.604Z,100484.00
2022-08-04T00:55:17.526Z,100482.00
2022-08-04T00:58:21.217Z,100486.00
2022-08-04T01:01:06.913Z,100495.00
2022-08-04T01:04:10.867Z,100493.00
2022-08-04T01:07:10.681Z,100496.00
2022-08-04T01:09:56.076Z,100488.00
2022-08-04T01:12:44.381Z,100496.00
2022-08-04T01:15:19.631Z,100489.00
2022-08-04T01:17:54.326Z,100487.00
2022-08-04T01:20:22.020Z,100485.00
2022-08-04T01:23:10.434Z,100484.00
2022-08-04T01:25:39.769Z,100488.00
2022-08-04T01:28:29.336Z,100486.00
2022-08-04T01:31:06.678Z,100493.00
2022-08-04T01:34:04.139Z,100492.00
2022-08-04T01:36:25.005Z,100492.00
2022-08-04T01:38:54.439Z,100489.00
2022-08-04T01:41:32.247Z,100488.00
2022-08-04T01:44:01.647Z,100494.00
2022-08-04T01:46:29.623Z,100485.00
2022-08-04T01:48:57.031Z,100490.00
2022-08-04T01:51:24.774Z,100487.00
2022-08-04T01:53:51.342Z,100490.00
2022-08-04T01:56:19.532Z,100484.00
2022-08-04T01:58:46.159Z,100490.00
2022-08-04T02:01:13.778Z,100485.00
2022-08-04T02:04:20.631Z,100478.00
2022-08-04T02:06:45.026Z,100480.00
2022-08-04T02:09:24.717Z,100480.00
2022-08-04T02:12:34.233Z,100485.00
2022-08-04T02:15:13.172Z,100479.00
2022-08-04T02:17:53.504Z,100474.00
2022-08-04T02:20:38.328Z,100484.00
2022-08-04T02:23:10.470Z,100478.00
2022-08-04T02:25:45.095Z,100480.00
2022-08-04T02:28:15.605Z,100477.00
2022-08-04T02:31:10.154Z,100476.00
2022-08-04T02:33:39.513Z,100476.00
2022-08-04T02:36:06.889Z,100475.00
2022-08-04T02:38:49.505Z,100476.00
2022-08-04T02:41:17.067Z,100475.00
2022-08-04T02:43:50.678Z,100457.00
2022-08-04T02:46:20.411Z,100459.00
2022-08-04T02:48:48.580Z,100460.00
2022-08-04T02:51:16.715Z,100459.00
2022-08-04T02:53:44.081Z,100465.00
2022-08-04T02:56:11.827Z,100459.00
2022-08-04T02:58:38.408Z,100463.00
2022-08-04T03:01:05.212Z,100451.00
2022-08-04T03:03:40.606Z,100466.00
2022-08-04T03:06:13.240Z,100466.00
2022-08-04T03:09:18.345Z,100462.00
2022-08-04T03:12:03.880Z,100461.00
2022-08-04T03:14:59.501Z,100463.00
2022-08-04T03:17:38.091Z,100463.00
2022-08-04T03:20:38.315Z,100469.00
2022-08-04T03:23:34.167Z,100466.00
2022-08-04T03:26:19.021Z,100464.00
2022-08-04T03:28:45.563Z,100466.00
2022-08-04T03:31:33.610Z,100453.00
2022-08-04T03:34:00.092Z,100462.00
2022-08-04T03:36:41.916Z,100464.00
2022-08-04T03:39:26.913Z,100470.00
2022-08-04T03:42:32.432Z,100471.00
2022-08-04T03:45:34.681Z,100470.00
2022-08-04T03:48:31.474Z,100474.00
2022-08-04T03:51:35.313Z,100467.00
2022-08-04T03:54:32.164Z,100458.00
2022-08-04T03:57:29.533Z,100464.00
2022-08-04T04:00:07.036Z,100462.00
2022-08-04T04:02:54.185Z,100463.00
2022-08-04T04:05:59.775Z,100468.00
2022-08-04T04:09:15.136Z,100470.00
2022-08-04T04:12:01.625Z,100471.00
2022-08-04T04:14:49.590Z,100477.00
2022-08-04T04:17:42.172Z,100469.00
2022-08-04T04:20:33.756Z,100476.00
2022-08-04T04:23:10.985Z,100474.00
2022-08-04T04:26:00.979Z,100469.00
2022-08-04T04:28:46.490Z,100473.00
2022-08-04T04:31:35.976Z,100473.00
2022-08-04T04:34:14.603Z,100473.00
2022-08-04T04:37:15.860Z,100470.00
2022-08-04T04:39:52.812Z,100473.00
2022-08-04T04:42:29.738Z,100475.00
2022-08-04T04:45:05.497Z,100476.00
2022-08-04T04:48:07.974Z,100477.00
2022-08-04T04:50:54.614Z,100477.00
2022-08-04T04:53:38.694Z,100474.00
2022-08-04T04:56:14.000Z,100477.00
2022-08-04T04:58:41.526Z,100474.00
2022-08-04T05:01:24.522Z,100479.00
2022-08-04T05:04:19.110Z,100484.00
2022-08-04T05:07:00.524Z,100483.00
2022-08-04T05:09:55.846Z,100486.00
2022-08-04T05:14:31.860Z,100480.00
2022-08-04T05:15:12.341Z,100480.00
2022-08-04T05:17:40.952Z,100476.00
2022-08-04T05:20:22.935Z,100477.00
2022-08-04T05:23:02.878Z,100476.00
2022-08-04T05:25:39.566Z,100470.00
2022-08-04T05:28:13.200Z,100476.00
2022-08-04T05:30:51.327Z,100478.00
2022-08-04T05:33:32.980Z,100476.00
2022-08-04T05:36:18.898Z,100476.00
2022-08-04T05:38:51.674Z,100481.00
2022-08-04T05:41:19.128Z,100476.00
2022-08-04T05:43:46.047Z,100483.00
2022-08-04T05:46:13.533Z,100488.00
2022-08-04T05:48:41.270Z,100478.00
2022-08-04T05:51:10.800Z,100483.00
2022-08-04T05:53:38.444Z,100479.00
2022-08-04T05:56:06.423Z,100475.00
2022-08-04T05:58:33.190Z,100483.00
2022-08-04T06:01:00.094Z,100480.00
2022-08-04T06:03:29.464Z,100476.00
2022-08-04T06:05:57.682Z,100474.00
2022-08-04T06:08:24.754Z,100478.00
2022-08-04T06:10:53.537Z,100482.00
2022-08-04T06:13:47.525Z,100478.00
2022-08-04T06:16:18.108Z,100483.00
2022-08-04T06:20:02.567Z,100480.00
2022-08-04T06:21:49.286Z,100486.00
2022-08-04T06:24:18.921Z,100483.00
2022-08-04T06:26:47.893Z,100486.00
2022-08-04T06:29:24.704Z,100489.00
2022-08-04T06:32:29.979Z,100489.00
2022-08-04T06:34:45.166Z,100485.00
2022-08-04T06:37:12.007Z,100486.00
2022-08-04T06:39:50.658Z,100488.00
2022-08-04T06:42:22.593Z,100481.00
2022-08-04T06:44:55.814Z,100482.00
2022-08-04T06:47:23.123Z,100478.00
2022-08-04T06:51:24.723Z,100484.00
2022-08-04T06:52:39.994Z,100476.00
2022-08-04T06:55:08.059Z,100479.00
2022-08-04T06:57:35.472Z,100477.00
2022-08-04T07:00:11.066Z,100476.00
2022-08-04T07:02:48.268Z,100477.00
2022-08-04T07:05:15.109Z,100477.00
2022-08-04T07:07:56.487Z,100479.00
2022-08-04T07:10:27.836Z,100479.00
2022-08-04T07:12:56.925Z,100485.00
2022-08-04T07:15:23.843Z,100487.00
2022-08-04T07:17:52.354Z,100477.00
2022-08-04T07:20:34.422Z,100487.00
2022-08-04T07:23:06.413Z,100482.00
2022-08-04T07:26:00.827Z,100478.00
2022-08-04T07:28:32.687Z,100476.00
2022-08-04T07:30:59.317Z,100479.00
2022-08-04T07:33:26.199Z,100471.00
2022-08-04T07:36:05.661Z,100470.00
2022-08-04T07:38:37.646Z,100469.00
2022-08-04T07:41:35.430Z,100471.00
2022-08-04T07:43:53.066Z,100470.00
2022-08-04T07:46:19.673Z,100472.00
2022-08-04T07:48:46.505Z,100474.00
2022-08-04T07:51:13.479Z,100470.00
2022-08-04T07:53:54.117Z,100470.00
2022-08-04T07:56:22.910Z,100474.00
2022-08-04T07:58:49.815Z,100477.00
2022-08-04T08:01:18.972Z,100471.00
2022-08-04T08:03:45.582Z,100467.00
2022-08-04T08:06:31.042Z,100467.00
2022-08-04T08:09:13.554Z,100470.00
2022-08-04T08:12:35.441Z,100470.00
2022-08-04T08:14:36.514Z,100466.00
2022-08-04T08:17:04.236Z,100460.00
2022-08-04T08:19:31.893Z,100462.00
2022-08-04T08:22:00.860Z,100464.00
2022-08-04T08:24:33.720Z,100467.00
2022-08-04T08:27:04.333Z,100460.00
2022-08-04T08:29:33.425Z,100470.00
2022-08-04T08:32:07.072Z,100459.00
2022-08-04T08:34:34.701Z,100460.00
2022-08-04T08:37:26.776Z,100459.00
2022-08-04T08:39:58.524Z,100467.00
2022-08-04T08:42:46.214Z,100458.00
2022-08-04T08:45:51.707Z,100457.00
2022-08-04T08:48:41.488Z,100462.00
2022-08-04T08:51:33.895Z,100463.00
2022-08-04T08:54:01.702Z,100454.00
2022-08-04T08:56:53.688Z,100451.00
2022-08-04T08:59:50.585Z,100449.00
2022-08-04T09:02:49.202Z,100456.00
2022-08-04T09:05:37.216Z,100457.00
2022-08-04T09:08:09.489Z,100451.00
2022-08-04T09:10:45.424Z,100451.00
2022-08-04T09:13:24.496Z,100457.00
2022-08-04T09:16:00.103Z,100449.00
2022-08-04T09:18:48.151Z,100456.00
2022-08-04T09:21:49.180Z,100457.00
2022-08-04T09:24:54.179Z,100451.00
2022-08-04T09:27:28.497Z,100457.00
2022-08-04T09:30:06.954Z,100451.00
2022-08-04T09:32:39.100Z,100450.00
2022-08-04T09:35:24.247Z,100451.00
2022-08-04T09:38:14.707Z,100449.00
2022-08-04T09:40:53.277Z,100438.00
2022-08-04T09:43:59.345Z,100445.00
2022-08-04T09:46:40.901Z,100437.00
2022-08-04T09:49:14.737Z,100443.00
2022-08-04T09:52:06.661Z,100436.00
2022-08-04T09:54:52.649Z,100442.00
2022-08-04T09:57:42.041Z,100439.00
2022-08-04T10:00:10.895Z,100438.00
2022-08-04T10:02:41.144Z,100440.00
2022-08-04T10:05:13.379Z,100439.00
2022-08-04T10:08:15.176Z,100435.00
2022-08-04T10:11:02.808Z,100431.00
2022-08-04T10:13:48.889Z,100432.00
2022-08-04T10:16:30.428Z,100420.00
2022-08-04T10:19:23.297Z,100418.00
2022-08-04T10:22:29.204Z,100420.00
2022-08-04T10:25:38.133Z,100415.00
2022-08-04T10:28:11.808Z,100414.00
2022-08-04T10:30:41.333Z,100410.00
2022-08-04T10:33:28.009Z,100406.00
2022-08-04T10:36:01.040Z,100406.00
2022-08-04T10:38:40.693Z,100404.00
2022-08-04T10:41:20.269Z,100393.00
2022-08-04T10:43:59.475Z,100396.00
2022-08-04T10:46:37.920Z,100399.00
2022-08-04T10:49:08.988Z,100391.00
2022-08-04T10:51:57.599Z,100394.00
2022-08-04T10:54:37.625Z,100384.00
2022-08-04T10:57:09.115Z,100389.00
2022-08-04T10:59:41.784Z,100387.00
2022-08-04T11:02:37.740Z,100387.00
2022-08-04T11:05:27.584Z,100387.00
2022-08-04T11:08:01.056Z,100381.00
2022-08-04T11:10:32.237Z,100386.00
2022-08-04T11:13:01.924Z,100379.00
2022-08-04T11:15:34.450Z,100387.00
2022-08-04T11:18:06.866Z,100381.00
2022-08-04T11:20:50.968Z,100372.00
2022-08-04T11:23:19.222Z,100373.00
2022-08-04T11:26:09.491Z,100373.00
2022-08-04T11:29:03.378Z,100371.00
2022-08-04T11:31:47.247Z,100369.00
2022-08-04T11:34:24.844Z,100369.00
2022-08-04T11:37:00.395Z,100363.00
2022-08-04T11:39:35.909Z,100377.00
2022-08-04T11:42:20.216Z,100363.00
2022-08-04T11:45:00.739Z,100366.00
2022-08-04T11:47:31.017Z,100363.00
2022-08-04T11:50:13.543Z,100365.00
2022-08-04T11:52:42.603Z,100365.00
2022-08-04T11:55:11.422Z,100378.00
2022-08-04T11:57:38.528Z,100369.00
2022-08-04T12:00:10.014Z,100376.00
2022-08-04T12:03:02.557Z,100373.00
2022-08-04T12:05:37.372Z,100368.00
2022-08-04T12:08:42.091Z,100365.00
2022-08-04T12:11:39.222Z,100362.00
2022-08-04T12:14:14.701Z,100360.00
2022-08-04T12:17:02.167Z,100357.00
2022-08-04T12:20:03.975Z,100352.00
2022-08-04T12:22:35.718Z,100356.00
2022-08-04T12:25:14.326Z,100352.00
2022-08-04T12:27:53.869Z,100343.00
2022-08-04T12:30:58.174Z,100345.00
2022-08-04T12:33:17.786Z,100346.00
2022-08-04T12:35:57.527Z,100347.00
2022-08-04T12:38:45.202Z,100341.00
2022-08-04T12:41:13.698Z,100341.00
2022-08-04T12:43:43.743Z,100337.00
2022-08-04T12:46:13.414Z,100335.00
2022-08-04T12:48:45.421Z,100326.00
2022-08-04T12:51:30.933Z,100325.00
2022-08-04T12:53:59.758Z,100321.00
2022-08-04T12:56:27.484Z,100318.00
2022-08-04T12:59:02.096Z,100316.00
2022-08-04T13:02:07.839Z,100321.00
2022-08-04T13:04:29.052Z,100317.00
2022-08-04T13:07:02.067Z,100314.00
2022-08-04T13:09:34.216Z,100305.00
2022-08-04T13:12:04.034Z,100309.00
2022-08-04T13:14:37.757Z,100299.00
2022-08-04T13:17:06.452Z,100308.00
2022-08-04T13:19:41.367Z,100305.00
2022-08-04T13:22:08.623Z,100297.00
2022-08-04T13:24:56.287Z,100298.00
2022-08-04T13:27:24.936Z,100299.00
2022-08-04T13:29:59.232Z,100300.00
2022-08-04T13:32:28.109Z,100296.00
2022-08-04T13:34:56.322Z,100298.00
2022-08-04T13:37:31.677Z,100294.00
2022-08-04T13:39:59.556Z,100288.00
2022-08-04T13:42:26.940Z,100287.00
2022-08-04T13:44:57.295Z,100290.00
2022-08-04T13:47:28.917Z,100286.00
2022-08-04T13:50:22.516Z,100288.00
2022-08-04T13:52:53.066Z,100279.00
2022-08-04T13:55:25.248Z,100271.00
2022-08-04T13:57:59.026Z,100277.00
2022-08-04T14:00:29.517Z,100273.00
2022-08-04T14:03:23.678Z,100263.00
2022-08-04T14:06:07.319Z,100269.00
2022-08-04T14:08:37.100Z,100263.00
2022-08-04T14:11:05.074Z,100261.00
2022-08-04T14:13:41.050Z,100259.00
2022-08-04T14:16:19.594Z,100251.00
2022-08-04T14:18:46.896Z,100248.00
2022-08-04T14:21:16.190Z,100248.00
2022-08-04T14:23:51.192Z,100251.00
2022-08-04T14:26:34.739Z,100249.00
2022-08-04T14:29:26.547Z,100243.00
2022-08-04T14:32:12.597Z,100241.00
2022-08-04T14:34:45.116Z,100235.00
2022-08-04T14:37:18.140Z,100233.00
2022-08-04T14:40:07.775Z,100240.00
2022-08-04T14:42:54.995Z,100235.00
2022-08-04T14:45:34.952Z,100240.00
2022-08-04T14:48:04.462Z,100239.00
2022-08-04T14:50:38.391Z,100234.00
2022-08-04T14:53:10.267Z,100231.00
2022-08-04T14:55:38.216Z,100233.00
2022-08-04T14:58:34.799Z,100231.00
2022-08-04T15:00:54.971Z,100220.00
2022-08-04T15:03:22.348Z,100217.00
2022-08-04T15:05:55.595Z,100215.00
2022-08-04T15:08:31.498Z,100218.00
2022-08-04T15:11:02.175Z,100213.00
2022-08-04T15:13:30.163Z,100213.00
2022-08-04T15:16:06.083Z,100201.00
2022-08-04T15:18:36.890Z,100205.00
2022-08-04T15:21:04.712Z,100209.00
2022-08-04T15:23:31.761Z,100212.00
2022-08-04T15:26:08.151Z,100216.00
2022-08-04T15:28:36.531Z,100210.00
2022-08-04T15:31:04.407Z,100207.00
2022-08-04T15:33:33.696Z,100198.00
2022-08-04T15:36:17.030Z,100198.00
2022-08-04T15:38:51.674Z,100196.00
2022-08-04T15:42:09.006Z,100187.00
2022-08-04T15:45:05.008Z,100195.00
2022-08-04T15:47:32.202Z,100191.00
2022-08-04T15:50:12.554Z,100190.00
2022-08-04T15:53:10.799Z,100193.00
2022-08-04T15:55:43.129Z,100186.00
2022-08-04T15:58:14.975Z,100178.00
2022-08-04T16:00:54.211Z,100182.00
2022-08-04T16:03:58.502Z,100187.00
2022-08-04T16:06:22.658Z,100179.00
2022-08-04T16:08:57.367Z,100181.00
2022-08-04T16:11:30.938Z,100182.00
2022-08-04T16:13:59.266Z,100172.00
2022-08-04T16:16:29.879Z,100185.00
2022-08-04T16:19:10.108Z,100178.00
2022-08-04T16:21:54.034Z,100181.00
2022-08-04T16:24:22.372Z,100173.00
2022-08-04T16:27:00.410Z,100170.00
2022-08-04T16:29:44.848Z,100173.00
2022-08-04T16:32:16.401Z,100169.00
2022-08-04T16:34:56.454Z,100174.00
2022-08-04T16:37:34.756Z,100172.00
2022-08-04T16:40:41.555Z,100178.00
2022-08-04T16:43:14.452Z,100176.00
2022-08-04T16:45:54.917Z,100174.00
2022-08-04T16:48:26.900Z,100171.00
2022-08-04T16:51:05.162Z,100177.00
2022-08-04T16:54:03.874Z,100172.00
2022-08-04T16:56:33.765Z,100171.00
2022-08-04T16:59:12.373Z,100167.00
2022-08-04T17:01:53.606Z,100163.00
2022-08-04T17:04:39.879Z,100166.00
2022-08-04T17:07:09.787Z,100173.00
2022-08-04T17:09:37.387Z,100167.00
2022-08-04T17:12:07.134Z,100159.00
2022-08-04T17:14:33.758Z,100163.00
2022-08-04T17:17:02.401Z,100163.00
2022-08-04T17:19:29.102Z,100167.00
2022-08-04T17:22:05.198Z,100165.00
2022-08-04T17:24:38.672Z,100169.00
2022-08-04T17:28:19.002Z,100164.00
2022-08-04T17:29:53.458Z,100163.00
2022-08-04T17:32:21.580Z,100161.00
2022-08-04T17:34:57.272Z,100156.00
2022-08-04T17:37:39.219Z,100160.00
2022-08-04T17:40:18.579Z,100158.00
2022-08-04T17:44:03.363Z,100167.00
2022-08-04T17:46:11.451Z,100170.00
2022-08-04T17:48:41.106Z,100165.00
2022-08-04T17:51:17.055Z,100174.00
2022-08-04T17:54:02.247Z,100167.00
2022-08-04T17:56:31.622Z,100169.00
2022-08-04T17:59:55.482Z,100172.00
2022-08-04T18:02:33.347Z,100163.00
2022-08-04T18:05:12.118Z,100163.00
2022-08-04T18:08:39.842Z,100165.00
2022-08-04T18:10:55.773Z,100155.00
2022-08-04T18:13:27.025Z,100161.00
2022-08-04T18:16:04.493Z,100161.00
2022-08-04T18:18:31.214Z,100160.00
2022-08-04T18:20:59.879Z,100158.00
2022-08-04T18:23:31.794Z,100152.00
2022-08-04T18:28:46.477Z,100153.00
2022-08-04T18:31:16.497Z,100147.00
2022-08-04T18:33:43.257Z,100157.00
2022-08-04T18:36:36.808Z,100157.00
2022-08-04T18:39:12.993Z,100161.00
2022-08-04T18:42:01.934Z,100149.00
2022-08-04T18:44:29.521Z,100158.00
2022-08-04T18:46:58.171Z,100155.00
2022-08-04T18:51:00.805Z,100165.00
2022-08-04T18:52:42.161Z,100167.00
2022-08-04T18:55:12.666Z,100169.00
2022-08-04T18:58:06.268Z,100164.00
2022-08-04T19:00:38.610Z,100169.00
2022-08-04T19:03:13.470Z,100165.00
2022-08-04T19:05:43.757Z,100176.00
2022-08-04T19:08:33.218Z,100170.00
2022-08-04T19:11:36.863Z,100169.00
2022-08-04T19:13:54.789Z,100171.00
2022-08-04T19:16:28.863Z,100177.00
2022-08-04T19:19:00.246Z,100168.00
2022-08-04T19:21:59.935Z,100171.00
2022-08-04T19:24:31.477Z,100174.00
2022-08-04T19:27:06.394Z,100178.00
2022-08-04T19:29:37.201Z,100170.00
2022-08-04T19:32:14.548Z,100173.00
2022-08-04T19:34:45.754Z,100176.00
2022-08-04T19:37:58.032Z,100170.00
2022-08-04T19:40:06.692Z,100175.00
2022-08-04T19:42:34.849Z,100180.00
2022-08-04T19:45:04.762Z,100180.00
2022-08-04T19:48:17.991Z,100177.00
2022-08-04T19:50:51.037Z,100186.00
2022-08-04T19:53:37.586Z,100187.00
2022-08-04T19:56:05.583Z,100184.00
2022-08-04T19:58:32.638Z,100189.00
2022-08-04T20:00:59.490Z,100194.00
2022-08-04T20:04:10.234Z,100191.00
2022-08-04T20:06:16.350Z,100183.00
2022-08-04T20:08:48.009Z,100191.00
2022-08-04T20:11:18.523Z,100184.00
2022-08-04T20:13:54.552Z,100188.00
2022-08-04T20:19:14.201Z,100182.00
2022-08-04T20:24:40.781Z,100184.00
2022-08-04T20:27:15.848Z,100185.00
2022-08-04T20:29:48.492Z,100177.00
2022-08-04T20:32:22.213Z,100179.00
2022-08-04T20:34:51.295Z,100176.00
2022-08-04T20:37:18.930Z,100176.00
2022-08-04T20:39:54.449Z,100178.00
2022-08-04T20:45:09.557Z,100172.00
2022-08-04T20:47:43.346Z,100177.00
2022-08-04T20:50:11.345Z,100179.00
2022-08-04T20:52:39.426Z,100174.00
2022-08-04T20:55:07.490Z,100173.00
2022-08-04T20:57:48.199Z,100177.00
2022-08-04T21:00:17.623Z,100186.00
2022-08-04T21:02:53.406Z,100182.00
2022-08-04T21:05:20.483Z,100178.00
2022-08-04T21:07:48.929Z,100181.00
2022-08-04T21:10:17.016Z,100183.00
2022-08-04T21:12:43.812Z,100184.00
2022-08-04T21:15:25.048Z,100176.00
2022-08-04T21:17:59.383Z,100177.00
2022-08-04T21:20:32.299Z,100177.00
2022-08-04T21:23:01.968Z,100178.00
2022-08-04T21:25:30.517Z,100182.00
2022-08-04T21:27:58.870Z,100175.00
2022-08-04T21:30:26.696Z,100177.00
2022-08-04T21:32:55.372Z,100182.00
2022-08-04T21:35:38.411Z,100177.00
2022-08-04T21:38:16.249Z,100178.00
2022-08-04T21:41:01.531Z,100180.00
2022-08-04T21:43:29.992Z,100178.00
2022-08-04T21:46:09.569Z,100173.00
2022-08-04T21:48:37.889Z,100174.00
2022-08-04T21:51:59.954Z,100180.00
2022-08-04T21:54:09.128Z,100177.00
2022-08-04T21:56:36.000Z,100176.00
2022-08-04T21:59:11.115Z,100179.00
2022-08-04T22:01:52.006Z,100174.00
2022-08-04T22:04:21.253Z,100177.00
2022-08-04T22:06:52.167Z,100177.00
2022-08-04T22:09:22.018Z,100179.00
2022-08-04T22:11:50.930Z,100185.00
2022-08-04T22:14:27.536Z,100181.00
2022-08-04T22:16:56.790Z,100188.00
2022-08-04T22:19:39.561Z,100179.00
2022-08-04T22:22:13.422Z,100193.00
2022-08-04T22:24:40.356Z,100189.00
2022-08-04T22:27:10.528Z,100185.00
2022-08-04T22:29:39.385Z,100192.00
2022-08-04T22:32:11.558Z,100179.00
2022-08-04T22:34:40.061Z,100176.00
2022-08-04T22:37:12.734Z,100173.00
2022-08-04T22:39:56.528Z,100177.00
2022-08-04T22:42:23.696Z,100176.00
2022-08-04T22:44:50.402Z,100173.00
2022-08-04T22:47:20.556Z,100172.00
2022-08-04T22:49:56.522Z,100181.00
2022-08-04T22:52:36.693Z,100182.00
2022-08-04T22:55:22.386Z,100186.00
2022-08-04T22:58:05.214Z,100184.00
2022-08-04T23:00:35.748Z,100190.00
2022-08-04T23:03:02.335Z,100186.00
2022-08-04T23:05:35.817Z,100186.00
2022-08-04T23:08:04.381Z,100191.00
2022-08-04T23:10:32.330Z,100196.00
2022-08-04T23:12:59.711Z,100188.00
2022-08-04T23:15:33.847Z,100189.00
2022-08-04T23:18:00.897Z,100186.00
2022-08-04T23:20:32.313Z,100188.00
2022-08-04T23:22:59.595Z,100188.00
2022-08-04T23:26:07.183Z,100188.00
2022-08-04T23:28:25.401Z,100180.00
2022-08-04T23:30:53.603Z,100178.00
2022-08-04T23:33:20.624Z,100182.00
2022-08-04T23:35:49.854Z,100175.00
2022-08-04T23:38:31.071Z,100178.00
2022-08-04T23:41:06.234Z,100171.00
2022-08-04T23:43:38.507Z,100162.00
2022-08-04T23:46:16.013Z,100164.00
2022-08-04T23:48:42.899Z,100157.00
2022-08-04T23:51:14.406Z,100165.00
2022-08-04T23:54:01.545Z,100155.00
2022-08-04T23:56:28.900Z,100158.00
2022-08-04T23:58:55.800Z,100158.00
